AGROMETEOROLOŠKI PORTAL
Vinorodna pokrajina

Temelj dobrega kmetovanja.

Pregled podatkov za lokacijo Selnica ob Dravi, meteorološka postaja 49160

Pregled senzorjev na lokaciji

ID Ime Zadnja
vrednost
Datum in čas
meritve
(lokalni čas)
Tip
senzorja
3699 Sončno sevanje (W/m2) 303 W/m2 19.4.2024 14:00 Pyranometer SP-Lite
3698 Omočenost lista (1,5 m) (U) 0 U 19.4.2024 14:00 A730WET
5051 Padavine (mm) 0 mm 19.4.2024 14:00 Generic 0.2 mm
3697 Relativna zračna vlaga (2 m) (%RH) 40 %RH 19.4.2024 14:00 50YA
3696 Temperatura (2 m) (°C) 11,8 °C 19.4.2024 14:00 50YA
6444 Smer vetra (3 m) (°) 323 ° 19.4.2024 14:00 Generic 0 - 360
6443 Hitrost vetra (3 m) (km/h) 5 km/h 19.4.2024 14:00 Pro10/2 270 km/h

Pregled podatkov zadnjih 24 ur

Zap.
št.
Datum in čas
(lokalni čas)
Selnica ob Dravi
Sončno
sevanje
Omočenost
lista
(1,5
m)
Padavine Relativna
zračna
vlaga
(2
m)
Temperatura
(2
m)
Smer
vetra
(3
m)
Hitrost
vetra
(3
m)
1 19.4.2024 14:00 303 0 0 39,8 11,8 323,2 5,1
2 19.4.2024 13:30 581,7 0 0 42 12,3 312,3 4
3 19.4.2024 13:00 390,1 0 0 40,4 11,5 347,7 5
4 19.4.2024 12:30 820,7 0 0 40,4 12,9 39,6 4,8
5 19.4.2024 12:00 648,9 0 0 43,9 12,2 89,9 3,9
6 19.4.2024 11:30 487,1 0 0 44,9 11,5 328,6 3,6
7 19.4.2024 11:00 678,3 0 0 42,5 11 8,2 3,1
8 19.4.2024 10:30 622,9 0 0 45,5 10,6 282,7 4,4
9 19.4.2024 10:00 566,1 0 0 55,1 9,3 304,8 5,2
10 19.4.2024 09:30 486,7 0 0 68,8 7,6 227,9 5,9
11 19.4.2024 09:00 351,4 1 0 75 5,7 307,3 6,7
12 19.4.2024 08:30 311,5 10 0 82,7 4,4 289,1 5,9
13 19.4.2024 08:00 241,6 10 0 86,9 3,5 277,2 5
14 19.4.2024 07:30 117,4 10 0 94,3 2 226,8 2,2
15 19.4.2024 07:00 28,1 10 0 96,6 0,9 196,3 1,4
16 19.4.2024 06:30 12,7 10 0 96,3 0,5 239,2 1,7
17 19.4.2024 06:00 1,1 10 0 95,5 1 164,7 1,1
18 19.4.2024 05:30 0 10 0 95,8 1,2 282,4 1,6
19 19.4.2024 05:00 0 10 0 95,3 1,7 342,8 1,2
20 19.4.2024 04:30 0 10 0 95,9 1,6 260,1 2,1
21 19.4.2024 04:00 0 10 0 95 1,7 294,1 2
22 19.4.2024 03:30 0 10 0 94,8 2,2 186,2 1,6
23 19.4.2024 03:00 0 10 0 95,7 2,5 269,6 2,9
24 19.4.2024 02:30 0 10 0 95,1 2,6 233,3 2,3
25 19.4.2024 02:00 0 10 0 95,2 3,4 246 1,6
26 19.4.2024 01:30 0 10 0 94,4 3,4 272,7 1,3
27 19.4.2024 01:00 0 10 0 94,3 3,9 296,7 0,5
28 19.4.2024 00:30 0 10 0 94,7 4,3 266,4 1,6
29 19.4.2024 00:00 0 10 0 94,5 4,5 244,3 2
30 18.4.2024 23:30 0 10 0 93,6 4,9 300,4 1,6
31 18.4.2024 23:00 0 10 0 92,6 5,4 215,2 1,4
32 18.4.2024 22:30 0 10 0 91,3 6 174 0,2
33 18.4.2024 22:00 0 9 0 89,4 6,1 232,1 0,4
34 18.4.2024 21:30 0 1 0 88 6,2 292,9 0,9
35 18.4.2024 21:00 0 0 0 84,9 6,3 234,8 3,4
36 18.4.2024 20:30 0 0 0 81,4 6,7 310 2,5
37 18.4.2024 20:00 3,5 0 0 76,7 7,1 160,3 2,3
38 18.4.2024 19:30 37,6 0 0 71,8 8 350,4 4,1
39 18.4.2024 19:00 99,4 0 0 66,3 9,7 29,7 4
40 18.4.2024 18:30 143,4 0 0 63,4 9,9 191,5 4,1
41 18.4.2024 18:00 166,4 0 0 63,4 9,7 303,5 5,5
42 18.4.2024 17:30 165,1 0 0 62,4 9,7 297,9 5,2
43 18.4.2024 17:00 268,3 0 0 58 10,2 235,9 2
44 18.4.2024 16:30 391,9 0 0 60,7 10,2 137,7 3,2
45 18.4.2024 16:00 354,8 1 0 70 9,3 8,8 2,7
46 18.4.2024 15:30 206,9 9 0 79,7 8,4 88,5 2,3